< Typhoon 200602 2006 Season Typhoon 200604 >
Typhoon 200603 (EWINIAR)
General InformationTrack Information on Google MapsDetailed Wind InformationAccess Analytics MapList of All Images || NewsDisaster Info.WeblogTrackbackTyphoon FrontResourceGoogle EarthGE AnimationAtom FeedGeoJSON
Detalied Best Track (Time Zone = UTC)
Year Month Day Hour Lat. Long. Pressure (hPa) Wind (kt) Class Image Chart
2006 6 29 06 6.0 139.8 1006 0 2 Image Chart
2006 6 29 12 6.0 139.5 1008 0 2 Image Chart
2006 6 29 18 6.1 139.2 1006 0 2 Image Chart
2006 6 30 00 6.2 138.7 1006 0 2 Image Chart
2006 6 30 06 6.6 138.3 1004 0 2 Image Chart
2006 6 30 12 7.0 137.9 1002 0 2 Image Chart
2006 6 30 18 7.5 137.8 1000 35 3 Image Chart
2006 7 1 00 8.5 137.5 998 35 3 Image Chart
2006 7 1 06 9.4 136.8 994 35 3 Image Chart
2006 7 1 12 10.2 136.0 992 40 3 Image Chart
2006 7 1 18 10.5 135.6 992 40 3 Image Chart
2006 7 2 00 10.8 135.4 990 45 3 Image Chart
2006 7 2 06 11.2 135.0 990 45 3 Image Chart
2006 7 2 12 11.8 134.6 985 50 4 Image Chart
2006 7 2 18 12.1 134.5 980 60 4 Image Chart
2006 7 3 00 12.3 134.5 975 65 5 Image Chart
2006 7 3 06 13.1 134.5 960 80 5 Image Chart
2006 7 3 12 14.1 134.1 950 85 5 Image Chart
2006 7 3 18 14.7 133.5 950 85 5 Image Chart
2006 7 4 00 15.3 133.0 950 85 5 Image Chart
2006 7 4 06 16.1 132.5 945 90 5 Image Chart
2006 7 4 12 16.8 132.2 930 100 5 Image Chart
2006 7 4 18 17.4 131.5 930 100 5 Image Chart
2006 7 5 00 17.9 130.8 930 100 5 Image Chart
2006 7 5 06 18.2 130.1 940 90 5 Image Chart
2006 7 5 12 18.5 129.6 950 85 5 Image Chart
2006 7 5 18 18.8 129.2 955 80 5 Image Chart
2006 7 6 00 19.2 128.8 955 80 5 Image Chart
2006 7 6 06 19.6 128.4 955 80 5 Image Chart
2006 7 6 12 20.1 128.2 955 80 5 Image Chart
2006 7 6 18 20.6 127.8 955 80 5 Image Chart
2006 7 7 00 20.8 127.6 955 80 5 Image Chart
2006 7 7 06 21.4 127.4 955 80 5 Image Chart
2006 7 7 12 22.1 127.1 955 80 5 Image Chart
2006 7 7 15 22.3 126.8 955 80 5 Image Chart
2006 7 7 18 22.5 126.5 950 80 5 Image Chart
2006 7 7 21 22.9 126.6 950 80 5 Image Chart
2006 7 8 00 23.2 126.5 950 80 5 Image Chart
2006 7 8 03 23.7 126.5 950 80 5 Image Chart
2006 7 8 06 24.1 126.3 950 80 5 Image Chart
2006 7 8 09 24.7 126.2 950 80 5 Image Chart
2006 7 8 12 25.1 126.1 955 80 5 Image Chart
2006 7 8 15 25.6 125.9 955 80 5 Image Chart
2006 7 8 18 26.3 125.9 960 75 5 Image Chart
2006 7 8 21 26.8 125.8 960 75 5 Image Chart
2006 7 9 00 27.5 125.8 960 75 5 Image Chart
2006 7 9 03 28.2 125.8 960 75 5 Image Chart
2006 7 9 06 29.3 125.8 965 70 5 Image Chart
2006 7 9 09 30.0 125.8 965 70 5 Image Chart
2006 7 9 12 30.7 125.7 970 65 5 Image Chart
2006 7 9 15 31.7 125.6 970 65 5 Image Chart
2006 7 9 18 32.6 125.8 975 60 4 Image Chart
2006 7 9 21 33.2 126.0 975 60 4 Image Chart
2006 7 10 00 33.8 126.2 975 60 4 Image Chart
2006 7 10 03 34.5 126.4 980 55 4 Image Chart
2006 7 10 06 35.6 126.8 985 45 3 Image Chart
2006 7 10 12 37.5 128.5 996 0 6 Image Chart
2006 7 10 18 39.0 130.3 996 0 6 Image Chart
2006 7 11 00 40.3 132.2 996 0 6 Image Chart
2006 7 11 06 41.0 134.1 998 0 6 Image Chart
2006 7 11 12 42.1 135.8 1000 0 6 Image Chart
2006 7 11 18 43.6 137.5 1000 0 6 Image Chart
2006 7 12 00 45.5 139.9 1000 0 6 Image Chart
2006 7 12 06 47.0 140.6 998 0 6 Image Chart
2006 7 12 12 47.6 140.8 998 0 6 Image Chart
2006 7 12 18 48.2 140.9 998 0 6 Image Chart
Japan Meteorological Agency Best Track Data | Correction Date : 2006-08-22
< Typhoon 200602 2006 Season Typhoon 200604 >

Help